^^
No Wait Weather (KNEBELLE1) Station Historical Data
Daily Summary for May 9, 2019 Units:  English    Metric   Both
Daily Weekly Monthly Yearly Custom
  High: Low: Average:
Temperature: 52.3 °F 38.6 °F 45.4 °F
Dew Point: 39.48 °F 33.56 °F 36.3 °F
Humidity: 88% 55% 71%
Wind Speed: 11mph 0mph 1.8mph
Wind Gust: 14mph - -
Wind- - ESE
Pressure: 30.02 in 29.68 in -
Precipitation: 0 in    
Historical Graphs
 
 
Tabular Data for May 9, 2019
Time Temperature Dew Point Pressure Wind Wind Speed Wind Gust Humidity Rainfall Rate (Hourly) solar
00:04 42.2 °F 38.61 °F 29.68 in Calm   2 mph 87% 0 in WeatherCatV3.04B91 W/m2
00:09 42.1 °F 38.51 °F 29.68 in Calm     87% 0 in WeatherCatV3.04B91 W/m2
00:14 41.9 °F 38.32 °F 29.68 in North 4 mph 12 mph 87% 0 in WeatherCatV3.04B91 W/m2
00:19 41.6 °F 38.02 °F 29.68 in Calm   6 mph 87% 0 in WeatherCatV3.04B91 W/m2
00:24 41.6 °F 38.31 °F 29.68 in NNE 2 mph 5 mph 88% 0 in WeatherCatV3.04B91 W/m2
00:29 41.5 °F 38.22 °F 29.70 in Calm   6 mph 88% 0 in WeatherCatV3.04B91 W/m2
00:34 41.3 °F 38.02 °F 29.70 in Calm   6 mph 88% 0 in WeatherCatV3.04B91 W/m2
00:39 41.3 °F 38.02 °F 29.70 in Calm   7 mph 88% 0 in WeatherCatV3.04B91 W/m2
00:44 41.1 °F 37.53 °F 29.70 in Calm   2 mph 87% 0 in WeatherCatV3.04B91 W/m2
00:49 40.9 °F 37.33 °F 29.70 in North 4 mph 6 mph 87% 0 in WeatherCatV3.04B91 W/m2
00:54 40.8 °F 37.24 °F 29.70 in North 2 mph 7 mph 87% 0 in WeatherCatV3.04B91 W/m2
00:59 40.6 °F 37.04 °F 29.71 in North 1 mph 7 mph 87% 0 in WeatherCatV3.04B91 W/m2
01:04 40.6 °F 37.04 °F 29.71 in NNW 5 mph 7 mph 87% 0 in WeatherCatV3.04B91 W/m2
01:09 40.6 °F 37.04 °F 29.71 in NNW 6 mph 6 mph 87% 0 in WeatherCatV3.04B91 W/m2
01:14 40.5 °F 36.94 °F 29.72 in North 4 mph 4 mph 87% 0 in WeatherCatV3.04B91 W/m2
01:19 40.3 °F 36.74 °F 29.72 in North 3 mph 10 mph 87% 0 in WeatherCatV3.04B91 W/m2
01:24 40.3 °F 36.74 °F 29.72 in Calm   7 mph 87% 0 in WeatherCatV3.04B91 W/m2
01:29 40.2 °F 36.93 °F 29.72 in Calm     88% 0 in WeatherCatV3.04B91 W/m2
01:34 40.1 °F 36.84 °F 29.72 in NNE 2 mph 4 mph 88% 0 in WeatherCatV3.04B91 W/m2
01:39 40.1 °F 36.84 °F 29.72 in Calm   2 mph 88% 0 in WeatherCatV3.04B91 W/m2
01:44 40.1 °F 36.84 °F 29.73 in Calm   5 mph 88% 0 in WeatherCatV3.04B91 W/m2
01:49 40.1 °F 36.84 °F 29.73 in Calm   4 mph 88% 0 in WeatherCatV3.04B91 W/m2
01:54 39.9 °F 36.64 °F 29.73 in Calm   3 mph 88% 0 in WeatherCatV3.04B91 W/m2
01:59 39.9 °F 36.64 °F 29.73 in Calm     88% 0 in WeatherCatV3.04B91 W/m2
02:04 40.1 °F 36.84 °F 29.73 in Calm   6 mph 88% 0 in WeatherCatV3.04B91 W/m2
02:09 39.9 °F 36.64 °F 29.73 in Calm   3 mph 88% 0 in WeatherCatV3.04B91 W/m2
02:14 39.9 °F 36.35 °F 29.72 in Calm   3 mph 87% 0 in WeatherCatV3.04B91 W/m2
02:19 39.9 °F 36.35 °F 29.72 in Calm   4 mph 87% 0 in WeatherCatV3.04B91 W/m2
02:24 39.8 °F 36.25 °F 29.72 in Calm   10 mph 87% 0 in WeatherCatV3.04B91 W/m2
02:29 39.8 °F 36.25 °F 29.73 in NNW 2 mph 3 mph 87% 0 in WeatherCatV3.04B91 W/m2
02:34 39.6 °F 35.76 °F 29.73 in Calm   6 mph 86% 0 in WeatherCatV3.04B91 W/m2
02:39 39.6 °F 35.76 °F 29.73 in Calm   1 mph 86% 0 in WeatherCatV3.04B91 W/m2
02:44 39.5 °F 35.67 °F 29.74 in Calm   1 mph 86% 0 in WeatherCatV3.04B91 W/m2
02:49 39.5 °F 35.67 °F 29.74 in Calm   6 mph 86% 0 in WeatherCatV3.04B91 W/m2
02:54 39.3 °F 35.47 °F 29.74 in NNW 5 mph 7 mph 86% 0 in WeatherCatV3.04B91 W/m2
02:59 39.2 °F 35.08 °F 29.74 in Calm   6 mph 85% 0 in WeatherCatV3.04B91 W/m2
03:04 39.1 °F 34.98 °F 29.74 in Calm   4 mph 85% 0 in WeatherCatV3.04B91 W/m2
03:09 39.1 °F 34.98 °F 29.74 in North 4 mph 6 mph 85% 0 in WeatherCatV3.04B91 W/m2
03:14 38.9 °F 34.78 °F 29.74 in Calm   1 mph 85% 0 in WeatherCatV3.04B91 W/m2
03:19 38.9 °F 34.78 °F 29.74 in Calm   4 mph 85% 0 in WeatherCatV3.04B91 W/m2
03:24 38.9 °F 34.48 °F 29.74 in Calm   1 mph 84% 0 in WeatherCatV3.04B91 W/m2
03:29 38.8 °F 34.09 °F 29.75 in NNW 2 mph 10 mph 83% 0 in WeatherCatV3.04B91 W/m2
03:34 38.8 °F 34.09 °F 29.75 in Calm   3 mph 83% 0 in WeatherCatV3.04B91 W/m2
03:39 38.6 °F 33.89 °F 29.75 in North 1 mph 10 mph 83% 0 in WeatherCatV3.04B91 W/m2
03:44 38.8 °F 34.09 °F 29.74 in North 3 mph 10 mph 83% 0 in WeatherCatV3.04B91 W/m2
03:49 38.6 °F 33.89 °F 29.74 in North 7 mph 9 mph 83% 0 in WeatherCatV3.04B91 W/m2
03:54 38.6 °F 33.89 °F 29.74 in North 1 mph 5 mph 83% 0 in WeatherCatV3.04B91 W/m2
03:59 38.6 °F 33.89 °F 29.75 in Calm   4 mph 83% 0 in WeatherCatV3.04B91 W/m2
04:04 38.6 °F 33.89 °F 29.75 in Calm   2 mph 83% 0 in WeatherCatV3.04B91 W/m2
04:09 38.6 °F 33.59 °F 29.75 in North 2 mph 5 mph 82% 0 in WeatherCatV3.04B91 W/m2
04:14 38.6 °F 33.59 °F 29.76 in NNE 3 mph 10 mph 82% 0 in WeatherCatV3.04B91 W/m2
04:19 38.8 °F 33.78 °F 29.76 in NNE 4 mph 4 mph 82% 0 in WeatherCatV3.04B91 W/m2
04:24 38.8 °F 33.78 °F 29.76 in Calm   6 mph 82% 0 in WeatherCatV3.04B91 W/m2
04:29 38.8 °F 33.78 °F 29.77 in North 1 mph 5 mph 82% 0 in WeatherCatV3.04B91 W/m2
04:34 38.8 °F 34.09 °F 29.77 in North 1 mph 6 mph 83% 0 in WeatherCatV3.04B91 W/m2
04:39 38.8 °F 34.09 °F 29.77 in North 9 mph 11 mph 83% 0 in WeatherCatV3.04B91 W/m2
04:44 38.8 °F 34.09 °F 29.78 in Calm   3 mph 83% 0 in WeatherCatV3.04B91 W/m2
04:49 38.9 °F 34.19 °F 29.78 in NNW 3 mph 4 mph 83% 0 in WeatherCatV3.04B91 W/m2
04:54 38.9 °F 34.19 °F 29.78 in Calm   3 mph 83% 0 in WeatherCatV3.04B91 W/m2
04:59 38.9 °F 34.19 °F 29.78 in North 3 mph 7 mph 83% 0 in WeatherCatV3.04B91 W/m2
05:04 38.9 °F 33.88 °F 29.78 in NNW 3 mph 12 mph 82% 0 in WeatherCatV3.04B91 W/m2
05:09 39.1 °F 34.08 °F 29.78 in Calm   6 mph 82% 0 in WeatherCatV3.04B91 W/m2
05:14 39.1 °F 34.38 °F 29.79 in Calm   7 mph 83% 0 in WeatherCatV3.04B91 W/m2
05:19 39.1 °F 34.38 °F 29.79 in NNW 4 mph 10 mph 83% 0 in WeatherCatV3.04B91 W/m2
05:24 38.9 °F 34.19 °F 29.79 in North 2 mph 3 mph 83% 0 in WeatherCatV3.04B91 W/m2
05:29 38.9 °F 34.19 °F 29.79 in NNW 3 mph 5 mph 83% 0 in WeatherCatV3.04B91 W/m2
05:34 38.9 °F 34.48 °F 29.79 in Calm   5 mph 84% 0 in WeatherCatV3.04B91 W/m2
05:39 38.9 °F 34.19 °F 29.79 in North 2 mph 4 mph 83% 0 in WeatherCatV3.04B91 W/m2
05:44 38.9 °F 34.19 °F 29.79 in Calm   5 mph 83% 0 in WeatherCatV3.04B91 W/m2
05:49 38.9 °F 34.19 °F 29.79 in Calm   2 mph 83% 0 in WeatherCatV3.04B91 W/m2
05:54 38.9 °F 34.19 °F 29.79 in Calm   8 mph 83% 0 in WeatherCatV3.04B91 W/m2
05:59 38.8 °F 33.78 °F 29.79 in North 3 mph 6 mph 82% 0 in WeatherCatV3.04B91 W/m2
06:04 38.8 °F 33.78 °F 29.79 in Calm   4 mph 82% 0 in WeatherCatV3.04B91 W/m2
06:09 38.8 °F 33.78 °F 29.79 in Calm     82% 0 in WeatherCatV3.04B91 W/m2
06:14 38.8 °F 33.78 °F 29.80 in Calm   5 mph 82% 0 in WeatherCatV3.04B91 W/m2
06:19 38.9 °F 33.58 °F 29.80 in NNW 2 mph 7 mph 81% 0 in WeatherCatV3.04B91 W/m2
06:24 38.9 °F 33.58 °F 29.80 in Calm   2 mph 81% 0 in WeatherCatV3.04B91 W/m2
06:29 39.1 °F 33.77 °F 29.80 in NNW 7 mph 11 mph 81% 0 in WeatherCatV3.04B91 W/m2
06:34 39.2 °F 33.56 °F 29.80 in Calm   7 mph 80% 0 in WeatherCatV3.04B91 W/m2
06:39 39.2 °F 33.56 °F 29.80 in Calm   3 mph 80% 0 in WeatherCatV3.04B91 W/m2
06:44 39.2 °F 33.56 °F 29.81 in North 2 mph 4 mph 80% 0 in WeatherCatV3.04B91 W/m2
06:49 39.3 °F 33.66 °F 29.81 in NNE 2 mph 2 mph 80% 0 in WeatherCatV3.04B91 W/m2
06:54 39.3 °F 33.66 °F 29.81 in Calm   5 mph 80% 0 in WeatherCatV3.04B91 W/m2
06:59 39.5 °F 33.85 °F 29.81 in Calm   4 mph 80% 0 in WeatherCatV3.04B91 W/m2
07:04 39.5 °F 33.85 °F 29.81 in Calm   1 mph 80% 0 in WeatherCatV3.04B91 W/m2
07:09 39.6 °F 33.95 °F 29.81 in Calm     80% 0 in WeatherCatV3.04B91 W/m2
07:14 39.6 °F 33.95 °F 29.82 in North 3 mph 4 mph 80% 0 in WeatherCatV3.04B91 W/m2
07:19 39.8 °F 34.14 °F 29.82 in SE 4 mph 9 mph 80% 0 in WeatherCatV3.04B91 W/m2
07:24 39.8 °F 33.83 °F 29.82 in NNW 4 mph 6 mph 79% 0 in WeatherCatV3.04B91 W/m2
07:29 39.9 °F 33.93 °F 29.82 in Calm   5 mph 79% 0 in WeatherCatV3.04B91 W/m2
07:34 40.1 °F 34.12 °F 29.82 in North 6 mph 9 mph 79% 0 in WeatherCatV3.04B91 W/m2
07:39 40.1 °F 33.8 °F 29.82 in Calm   4 mph 78% 0 in WeatherCatV3.04B91 W/m2
07:44 40.2 °F 33.9 °F 29.82 in North 6 mph 6 mph 78% 0 in WeatherCatV3.04B91 W/m2
07:49 40.3 °F 34 °F 29.82 in North 4 mph 4 mph 78% 0 in WeatherCatV3.04B91 W/m2
07:54 40.3 °F 34 °F 29.82 in Calm   4 mph 78% 0 in WeatherCatV3.04B91 W/m2
07:59 40.5 °F 34.19 °F 29.82 in North 1 mph 6 mph 78% 0 in WeatherCatV3.04B91 W/m2
08:04 40.6 °F 34.29 °F 29.82 in North 5 mph 9 mph 78% 0 in WeatherCatV3.04B91 W/m2
08:09 40.6 °F 34.29 °F 29.82 in Calm   8 mph 78% 0 in WeatherCatV3.04B91 W/m2
08:14 40.8 °F 34.48 °F 29.83 in North 3 mph 9 mph 78% 0 in WeatherCatV3.04B91 W/m2
08:19 40.9 °F 34.25 °F 29.83 in North 3 mph 9 mph 77% 0 in WeatherCatV3.04B91 W/m2
08:24 41.1 °F 34.45 °F 29.83 in NNE 3 mph 12 mph 77% 0 in WeatherCatV3.04B91 W/m2
08:29 41.2 °F 34.22 °F 29.83 in NE 3 mph 12 mph 76% 0 in WeatherCatV3.04B91 W/m2
08:34 41.3 °F 34.64 °F 29.83 in North 5 mph 6 mph 77% 0 in WeatherCatV3.04B91 W/m2
08:39 41.5 °F 34.51 °F 29.83 in North 10 mph 10 mph 76% 0 in WeatherCatV3.04B91 W/m2
08:44 41.5 °F 34.51 °F 29.83 in Calm   8 mph 76% 0 in WeatherCatV3.04B91 W/m2
08:49 41.6 °F 34.93 °F 29.83 in NNE 2 mph 6 mph 77% 0 in WeatherCatV3.04B91 W/m2
08:54 41.8 °F 35.13 °F 29.83 in NNE 11 mph 11 mph 77% 0 in WeatherCatV3.04B91 W/m2
08:59 41.9 °F 35.22 °F 29.84 in North 3 mph 7 mph 77% 0 in WeatherCatV3.04B91 W/m2
09:04 41.9 °F 35.22 °F 29.84 in NNE 2 mph 6 mph 77% 0 in WeatherCatV3.04B91 W/m2
09:09 42.1 °F 35.42 °F 29.84 in Calm   5 mph 77% 0 in WeatherCatV3.04B91 W/m2
09:14 42.1 °F 35.42 °F 29.85 in NNE 10 mph 13 mph 77% 0 in WeatherCatV3.04B91 W/m2
09:19 42.1 °F 35.42 °F 29.85 in North 5 mph 14 mph 77% 0 in WeatherCatV3.04B91 W/m2
09:24 42.1 °F 35.42 °F 29.85 in NNE 3 mph 11 mph 77% 0 in WeatherCatV3.04B91 W/m2
09:29 42.2 °F 35.52 °F 29.85 in NNE 5 mph 6 mph 77% 0 in WeatherCatV3.04B91 W/m2
09:34 42.2 °F 35.52 °F 29.85 in Calm     77% 0 in WeatherCatV3.04B91 W/m2
09:39 42.3 °F 35.94 °F 29.85 in North 3 mph 4 mph 78% 0 in WeatherCatV3.04B91 W/m2
09:44 42.3 °F 35.94 °F 29.86 in NE 1 mph 3 mph 78% 0 in WeatherCatV3.04B91 W/m2
09:49 42.5 °F 36.13 °F 29.86 in North 2 mph 4 mph 78% 0 in WeatherCatV3.04B91 W/m2
09:54 42.6 °F 36.23 °F 29.86 in NNW 5 mph 9 mph 78% 0 in WeatherCatV3.04B91 W/m2
09:59 42.8 °F 36.1 °F 29.86 in North 2 mph 10 mph 77% 0 in WeatherCatV3.04B91 W/m2
10:04 42.9 °F 36.19 °F 29.86 in Calm   10 mph 77% 0 in WeatherCatV3.04B91 W/m2
10:09 43.1 °F 36.39 °F 29.86 in North 2 mph 6 mph 77% 0 in WeatherCatV3.04B91 W/m2
10:14 43.2 °F 36.49 °F 29.86 in Calm   7 mph 77% 0 in WeatherCatV3.04B91 W/m2
10:19 43.3 °F 36.58 °F 29.86 in Calm   7 mph 77% 0 in WeatherCatV3.04B91 W/m2
10:24 43.5 °F 36.45 °F 29.86 in NE 2 mph 8 mph 76% 0 in WeatherCatV3.04B91 W/m2
10:29 43.6 °F 36.54 °F 29.87 in North 9 mph 9 mph 76% 0 in WeatherCatV3.04B91 W/m2
10:34 43.8 °F 36.4 °F 29.87 in North 3 mph 9 mph 75% 0 in WeatherCatV3.04B91 W/m2
10:39 43.9 °F 36.5 °F 29.87 in Calm   3 mph 75% 0 in WeatherCatV3.04B91 W/m2
10:44 44.2 °F 36.79 °F 29.87 in ENE 4 mph 7 mph 75% 0 in WeatherCatV3.04B91 W/m2
10:49 44.6 °F 36.83 °F 29.87 in North 5 mph 9 mph 74% 0 in WeatherCatV3.04B91 W/m2
10:54 44.8 °F 36.33 °F 29.87 in Calm   9 mph 72% 0 in WeatherCatV3.04B91 W/m2
10:59 45.1 °F 36.27 °F 29.88 in NNE 1 mph 11 mph 71% 0 in WeatherCatV3.04B91 W/m2
11:04 45.2 °F 36.36 °F 29.88 in Calm   3 mph 71% 0 in WeatherCatV3.04B91 W/m2
11:09 45.4 °F 36.56 °F 29.88 in North 3 mph 6 mph 71% 0 in WeatherCatV3.04B91 W/m2
11:14 45.4 °F 36.2 °F 29.89 in Calm   6 mph 70% 0 in WeatherCatV3.04B91 W/m2
11:19 45.7 °F 36.48 °F 29.89 in Calm   7 mph 70% 0 in WeatherCatV3.04B91 W/m2
11:24 46.1 °F 36.5 °F 29.89 in NNE 4 mph 10 mph 69% 0 in WeatherCatV3.04B91 W/m2
11:29 46.4 °F 36.42 °F 29.89 in North 6 mph 6 mph 68% 0 in WeatherCatV3.04B91 W/m2
11:34 46.5 °F 36.52 °F 29.89 in NNE 6 mph 6 mph 68% 0 in WeatherCatV3.04B91 W/m2
11:39 46.7 °F 35.95 °F 29.89 in Calm   10 mph 66% 0 in WeatherCatV3.04B91 W/m2
11:44 47 °F 36.24 °F 29.89 in NNE 1 mph 4 mph 66% 0 in WeatherCatV3.04B91 W/m2
11:49 47.3 °F 36.52 °F 29.89 in ENE 2 mph 6 mph 66% 0 in WeatherCatV3.04B91 W/m2
11:54 47.1 °F 35.95 °F 29.89 in North 3 mph 6 mph 65% 0 in WeatherCatV3.04B91 W/m2
11:59 46.8 °F 36.05 °F 29.90 in Calm   6 mph 66% 0 in WeatherCatV3.04B91 W/m2
12:04 46.8 °F 36.05 °F 29.90 in Calm   9 mph 66% 0 in WeatherCatV3.04B91 W/m2
12:09 47 °F 36.62 °F 29.90 in NE 2 mph 5 mph 67% 0 in WeatherCatV3.04B91 W/m2
12:14 47 °F 36.62 °F 29.91 in North 4 mph 5 mph 67% 0 in WeatherCatV3.04B91 W/m2
12:19 47.1 °F 36.71 °F 29.91 in NNE 2 mph 5 mph 67% 0 in WeatherCatV3.04B91 W/m2
12:24 47.3 °F 36.91 °F 29.91 in Calm   6 mph 67% 0 in WeatherCatV3.04B91 W/m2
12:29 47.6 °F 36.81 °F 29.91 in North 1 mph 5 mph 66% 0 in WeatherCatV3.04B91 W/m2
12:34 48.2 °F 36.6 °F 29.91 in NNE 4 mph 5 mph 64% 0 in WeatherCatV3.04B91 W/m2
12:39 48.6 °F 36.18 °F 29.91 in NE 3 mph 5 mph 62% 0 in WeatherCatV3.04B91 W/m2
12:44 48.5 °F 36.08 °F 29.91 in North 1 mph 5 mph 62% 0 in WeatherCatV3.04B91 W/m2
12:49 48.2 °F 36.2 °F 29.91 in Calm   10 mph 63% 0 in WeatherCatV3.04B91 W/m2
12:54 48 °F 36.8 °F 29.91 in Calm   6 mph 65% 0 in WeatherCatV3.04B91 W/m2
12:59 48.2 °F 37.38 °F 29.91 in NNE 4 mph 7 mph 66% 0 in WeatherCatV3.04B91 W/m2
13:04 48.2 °F 37.38 °F 29.91 in Calm   1 mph 66% 0 in WeatherCatV3.04B91 W/m2
13:09 48.3 °F 36.7 °F 29.91 in North 3 mph 3 mph 64% 0 in WeatherCatV3.04B91 W/m2
13:14 48.2 °F 36.6 °F 29.90 in North 6 mph 9 mph 64% 0 in WeatherCatV3.04B91 W/m2
13:19 48.5 °F 36.89 °F 29.90 in North 5 mph 5 mph 64% 0 in WeatherCatV3.04B91 W/m2
13:24 48.8 °F 37.17 °F 29.90 in North 2 mph 6 mph 64% 0 in WeatherCatV3.04B91 W/m2
13:29 48.6 °F 36.18 °F 29.89 in ENE 3 mph 10 mph 62% 0 in WeatherCatV3.04B91 W/m2
13:34 48.8 °F 36.77 °F 29.89 in Calm   5 mph 63% 0 in WeatherCatV3.04B91 W/m2
13:39 48.9 °F 36.05 °F 29.89 in North 5 mph 9 mph 61% 0 in WeatherCatV3.04B91 W/m2
13:44 48.9 °F 35.63 °F 29.89 in North 4 mph 11 mph 60% 0 in WeatherCatV3.04B91 W/m2
13:49 48.9 °F 35.63 °F 29.89 in North 5 mph 9 mph 60% 0 in WeatherCatV3.04B91 W/m2
13:54 49.1 °F 36.24 °F 29.89 in North 3 mph 7 mph 61% 0 in WeatherCatV3.04B91 W/m2
13:59 49.1 °F 36.24 °F 29.90 in Calm   4 mph 61% 0 in WeatherCatV3.04B91 W/m2
14:04 49.1 °F 36.24 °F 29.90 in Calm   6 mph 61% 0 in WeatherCatV3.04B91 W/m2
14:09 49.4 °F 36.93 °F 29.90 in Calm   9 mph 62% 0 in WeatherCatV3.04B91 W/m2
14:14 49.4 °F 36.52 °F 29.91 in North 1 mph 6 mph 61% 0 in WeatherCatV3.04B91 W/m2
14:19 49.5 °F 36.61 °F 29.91 in NNW 1 mph 7 mph 61% 0 in WeatherCatV3.04B91 W/m2
14:24 49.5 °F 36.61 °F 29.91 in North 5 mph 8 mph 61% 0 in WeatherCatV3.04B91 W/m2
14:29 49.5 °F 36.61 °F 29.91 in NNE 3 mph 9 mph 61% 0 in WeatherCatV3.04B91 W/m2
14:34 49.5 °F 36.61 °F 29.91 in NNE 7 mph 10 mph 61% 0 in WeatherCatV3.04B91 W/m2
14:39 49.5 °F 36.61 °F 29.91 in East 5 mph 11 mph 61% 0 in WeatherCatV3.04B91 W/m2
14:44 49.8 °F 37.31 °F 29.91 in Calm   3 mph 62% 0 in WeatherCatV3.04B91 W/m2
14:49 49.8 °F 36.48 °F 29.91 in Calm   5 mph 60% 0 in WeatherCatV3.04B91 W/m2
14:54 49.8 °F 36.9 °F 29.91 in Calm   6 mph 61% 0 in WeatherCatV3.04B91 W/m2
14:59 49.9 °F 36.99 °F 29.92 in North 2 mph 5 mph 61% 0 in WeatherCatV3.04B91 W/m2
15:04 50.5 °F 37.56 °F 29.92 in Calm   5 mph 61% 0 in WeatherCatV3.04B91 W/m2
15:09 50.8 °F 37.42 °F 29.92 in North 2 mph 4 mph 60% 0 in WeatherCatV3.04B91 W/m2
15:14 50.7 °F 36.9 °F 29.92 in NNE 7 mph 7 mph 59% 0 in WeatherCatV3.04B91 W/m2
15:19 50.7 °F 37.33 °F 29.92 in North 5 mph 9 mph 60% 0 in WeatherCatV3.04B91 W/m2
15:24 50.8 °F 36.99 °F 29.92 in North 3 mph 9 mph 59% 0 in WeatherCatV3.04B91 W/m2
15:29 50.8 °F 36.99 °F 29.92 in NNE 2 mph 6 mph 59% 0 in WeatherCatV3.04B91 W/m2
15:34 51 °F 37.18 °F 29.92 in Calm   6 mph 59% 0 in WeatherCatV3.04B91 W/m2
15:39 50.7 °F 36.47 °F 29.92 in Calm   5 mph 58% 0 in WeatherCatV3.04B91 W/m2
15:44 50.4 °F 37.04 °F 29.92 in North 1 mph 5 mph 60% 0 in WeatherCatV3.04B91 W/m2
15:49 50.2 °F 36.86 °F 29.92 in Calm   7 mph 60% 0 in WeatherCatV3.04B91 W/m2
15:54 50.2 °F 37.27 °F 29.92 in NNE 3 mph 6 mph 61% 0 in WeatherCatV3.04B91 W/m2
15:59 50.4 °F 37.88 °F 29.92 in Calm   4 mph 62% 0 in WeatherCatV3.04B91 W/m2
16:04 51 °F 38.03 °F 29.92 in Calm   5 mph 61% 0 in WeatherCatV3.04B91 W/m2
16:09 51.4 °F 38.41 °F 29.92 in East 6 mph 7 mph 61% 0 in WeatherCatV3.04B91 W/m2
16:14 51.9 °F 38.03 °F 29.91 in NNE 10 mph 10 mph 59% 0 in WeatherCatV3.04B91 W/m2
16:19 52 °F 37.24 °F 29.91 in North 2 mph 11 mph 57% 0 in WeatherCatV3.04B91 W/m2
16:24 52 °F 37.69 °F 29.91 in Calm   7 mph 58% 0 in WeatherCatV3.04B91 W/m2
16:29 52 °F 37.69 °F 29.92 in ENE 4 mph 5 mph 58% 0 in WeatherCatV3.04B91 W/m2
16:34 52.3 °F 37.52 °F 29.92 in North 3 mph 9 mph 57% 0 in WeatherCatV3.04B91 W/m2
16:39 52.2 °F 37.43 °F 29.92 in NNE 11 mph 11 mph 57% 0 in WeatherCatV3.04B91 W/m2
16:44 52 °F 37.24 °F 29.92 in NE 6 mph 6 mph 57% 0 in WeatherCatV3.04B91 W/m2
16:49 51.9 °F 37.15 °F 29.92 in NNE 1 mph 5 mph 57% 0 in WeatherCatV3.04B91 W/m2
16:54 52 °F 37.69 °F 29.92 in North 1 mph 6 mph 58% 0 in WeatherCatV3.04B91 W/m2
16:59 52 °F 37.24 °F 29.92 in NNW 4 mph 10 mph 57% 0 in WeatherCatV3.04B91 W/m2
17:04 52.2 °F 37.87 °F 29.92 in North 7 mph 13 mph 58% 0 in WeatherCatV3.04B91 W/m2
17:09 52 °F 37.24 °F 29.92 in NNE 4 mph 6 mph 57% 0 in WeatherCatV3.04B91 W/m2
17:14 51.9 °F 37.15 °F 29.92 in NE 2 mph 12 mph 57% 0 in WeatherCatV3.04B91 W/m2
17:19 51.7 °F 37.4 °F 29.92 in ENE 7 mph 10 mph 58% 0 in WeatherCatV3.04B91 W/m2
17:24 51.9 °F 38.03 °F 29.92 in NNE 2 mph 7 mph 59% 0 in WeatherCatV3.04B91 W/m2
17:29 51.9 °F 37.59 °F 29.92 in NE 1 mph 10 mph 58% 0 in WeatherCatV3.04B91 W/m2
17:34 51.7 °F 37.4 °F 29.92 in North 2 mph 6 mph 58% 0 in WeatherCatV3.04B91 W/m2
17:39 51.7 °F 36.96 °F 29.92 in Calm   7 mph 57% 0 in WeatherCatV3.04B91 W/m2
17:44 51.9 °F 37.15 °F 29.92 in NNE 4 mph 10 mph 57% 0 in WeatherCatV3.04B91 W/m2
17:49 51.9 °F 37.15 °F 29.92 in North 3 mph 9 mph 57% 0 in WeatherCatV3.04B91 W/m2
17:54 52 °F 37.24 °F 29.92 in NNE 6 mph 10 mph 57% 0 in WeatherCatV3.04B91 W/m2
17:59 52 °F 37.24 °F 29.92 in NNE 3 mph 6 mph 57% 0 in WeatherCatV3.04B91 W/m2
18:04 52 °F 37.69 °F 29.92 in NE 2 mph 4 mph 58% 0 in WeatherCatV3.04B91 W/m2
18:09 52 °F 38.12 °F 29.92 in Calm   3 mph 59% 0 in WeatherCatV3.04B91 W/m2
18:14 52 °F 37.69 °F 29.92 in NNE 6 mph 6 mph 58% 0 in WeatherCatV3.04B91 W/m2
18:19 52 °F 37.69 °F 29.92 in Calm   8 mph 58% 0 in WeatherCatV3.04B91 W/m2
18:24 52 °F 36.79 °F 29.92 in North 2 mph 9 mph 56% 0 in WeatherCatV3.04B91 W/m2
18:29 52.2 °F 36.98 °F 29.92 in North 5 mph 9 mph 56% 0 in WeatherCatV3.04B91 W/m2
18:34 52.2 °F 36.98 °F 29.92 in NNE 3 mph 6 mph 56% 0 in WeatherCatV3.04B91 W/m2
18:39 52.2 °F 37.43 °F 29.92 in Calm   4 mph 57% 0 in WeatherCatV3.04B91 W/m2
18:44 52.2 °F 37.43 °F 29.92 in North 8 mph 8 mph 57% 0 in WeatherCatV3.04B91 W/m2
18:49 52 °F 36.34 °F 29.92 in NNE 2 mph 11 mph 55% 0 in WeatherCatV3.04B91 W/m2
18:54 52 °F 36.79 °F 29.92 in Calm   11 mph 56% 0 in WeatherCatV3.04B91 W/m2
18:59 52 °F 37.24 °F 29.91 in North 5 mph 7 mph 57% 0 in WeatherCatV3.04B91 W/m2
19:04 51.9 °F 37.15 °F 29.91 in Calm   9 mph 57% 0 in WeatherCatV3.04B91 W/m2
19:09 51.7 °F 36.51 °F 29.91 in North 2 mph 9 mph 56% 0 in WeatherCatV3.04B91 W/m2
19:14 51.7 °F 36.51 °F 29.91 in NNE 2 mph 3 mph 56% 0 in WeatherCatV3.04B91 W/m2
19:19 51.7 °F 36.51 °F 29.91 in ENE 4 mph 11 mph 56% 0 in WeatherCatV3.04B91 W/m2
19:24 51.6 °F 36.42 °F 29.91 in NNE 2 mph 5 mph 56% 0 in WeatherCatV3.04B91 W/m2
19:29 51.6 °F 36.42 °F 29.92 in NNW 4 mph 9 mph 56% 0 in WeatherCatV3.04B91 W/m2
19:34 51.4 °F 36.23 °F 29.92 in North 2 mph 4 mph 56% 0 in WeatherCatV3.04B91 W/m2
19:39 51.3 °F 35.69 °F 29.92 in NE 3 mph 13 mph 55% 0 in WeatherCatV3.04B91 W/m2
19:44 51.3 °F 35.69 °F 29.92 in NNE 2 mph 5 mph 55% 0 in WeatherCatV3.04B91 W/m2
19:49 51.3 °F 36.14 °F 29.92 in NNE 1 mph 7 mph 56% 0 in WeatherCatV3.04B91 W/m2
19:54 51.1 °F 36.4 °F 29.92 in Calm   5 mph 57% 0 in WeatherCatV3.04B91 W/m2
19:59 51.1 °F 36.4 °F 29.92 in Calm   6 mph 57% 0 in WeatherCatV3.04B91 W/m2
20:04 51 °F 36.31 °F 29.92 in Calm   5 mph 57% 0 in WeatherCatV3.04B91 W/m2
20:09 50.8 °F 36.56 °F 29.92 in Calm   10 mph 58% 0 in WeatherCatV3.04B91 W/m2
20:14 50.8 °F 36.99 °F 29.93 in NNE 1 mph 1 mph 59% 0 in WeatherCatV3.04B91 W/m2
20:19 50.7 °F 36.9 °F 29.93 in Calm   4 mph 59% 0 in WeatherCatV3.04B91 W/m2
20:24 50.5 °F 37.14 °F 29.93 in Calm   1 mph 60% 0 in WeatherCatV3.04B91 W/m2
20:29 50.4 °F 37.46 °F 29.93 in Calm   6 mph 61% 0 in WeatherCatV3.04B91 W/m2
20:34 50.2 °F 37.69 °F 29.93 in Calm   4 mph 62% 0 in WeatherCatV3.04B91 W/m2
20:39 50.2 °F 37.27 °F 29.93 in Calm   4 mph 61% 0 in WeatherCatV3.04B91 W/m2
20:44 50.2 °F 37.27 °F 29.95 in Calm   5 mph 61% 0 in WeatherCatV3.04B91 W/m2
20:49 50.2 °F 37.27 °F 29.95 in Calm   2 mph 61% 0 in WeatherCatV3.04B91 W/m2
20:54 50.1 °F 37.59 °F 29.95 in Calm     62% 0 in WeatherCatV3.04B91 W/m2
20:59 49.9 °F 37.4 °F 29.96 in Calm   2 mph 62% 0 in WeatherCatV3.04B91 W/m2
21:04 49.9 °F 37.4 °F 29.96 in Calm     62% 0 in WeatherCatV3.04B91 W/m2
21:09 49.8 °F 37.31 °F 29.96 in Calm     62% 0 in WeatherCatV3.04B91 W/m2
21:14 49.8 °F 37.72 °F 29.97 in Calm     63% 0 in WeatherCatV3.04B91 W/m2
21:19 49.6 °F 37.53 °F 29.97 in Calm     63% 0 in WeatherCatV3.04B91 W/m2
21:24 49.5 °F 37.03 °F 29.97 in Calm   3 mph 62% 0 in WeatherCatV3.04B91 W/m2
21:29 49.5 °F 37.03 °F 29.98 in Calm     62% 0 in WeatherCatV3.04B91 W/m2
21:34 49.4 °F 37.34 °F 29.98 in Calm     63% 0 in WeatherCatV3.04B91 W/m2
21:39 49.2 °F 37.55 °F 29.98 in Calm     64% 0 in WeatherCatV3.04B91 W/m2
21:44 49.2 °F 37.55 °F 29.99 in Calm     64% 0 in WeatherCatV3.04B91 W/m2
21:49 49.1 °F 37.45 °F 29.99 in Calm     64% 0 in WeatherCatV3.04B91 W/m2
21:54 49.1 °F 37.45 °F 29.99 in Calm     64% 0 in WeatherCatV3.04B91 W/m2
21:59 49.1 °F 37.85 °F 30.00 in Calm     65% 0 in WeatherCatV3.04B91 W/m2
22:04 49.1 °F 37.85 °F 30.00 in Calm     65% 0 in WeatherCatV3.04B91 W/m2
22:09 48.9 °F 38.05 °F 30.00 in Calm     66% 0 in WeatherCatV3.04B91 W/m2
22:14 48.8 °F 37.95 °F 30.00 in Calm     66% 0 in WeatherCatV3.04B91 W/m2
22:19 48.8 °F 38.34 °F 30.00 in Calm     67% 0 in WeatherCatV3.04B91 W/m2
22:24 48.6 °F 38.14 °F 30.00 in Calm     67% 0 in WeatherCatV3.04B91 W/m2
22:29 48.5 °F 38.43 °F 30.01 in Calm     68% 0 in WeatherCatV3.04B91 W/m2
22:34 48.3 °F 38.24 °F 30.01 in Calm     68% 0 in WeatherCatV3.04B91 W/m2
22:39 48.2 °F 38.51 °F 30.01 in Calm     69% 0 in WeatherCatV3.04B91 W/m2
22:44 48 °F 38.69 °F 30.01 in Calm     70% 0 in WeatherCatV3.04B91 W/m2
22:49 48 °F 38.69 °F 30.01 in Calm     70% 0 in WeatherCatV3.04B91 W/m2
22:54 47.9 °F 38.96 °F 30.01 in Calm     71% 0 in WeatherCatV3.04B91 W/m2
22:59 47.9 °F 38.96 °F 30.02 in Calm     71% 0 in WeatherCatV3.04B91 W/m2
23:04 47.9 °F 39.31 °F 30.02 in Calm     72% 0 in WeatherCatV3.04B91 W/m2
23:09 47.9 °F 39.31 °F 30.02 in Calm     72% 0 in WeatherCatV3.04B91 W/m2
23:14 47.9 °F 39.31 °F 30.01 in Calm     72% 0 in WeatherCatV3.04B91 W/m2
23:19 47.9 °F 39.31 °F 30.01 in Calm     72% 0 in WeatherCatV3.04B91 W/m2
23:24 47.7 °F 39.12 °F 30.01 in Calm     72% 0 in WeatherCatV3.04B91 W/m2
23:29 47.7 °F 39.12 °F 30.01 in Calm     72% 0 in WeatherCatV3.04B91 W/m2
23:34 47.7 °F 39.48 °F 30.01 in Calm     73% 0 in WeatherCatV3.04B91 W/m2
23:39 47.6 °F 39.38 °F 30.01 in Calm     73% 0 in WeatherCatV3.04B91 W/m2
23:44 47.4 °F 39.19 °F 30.01 in Calm     73% 0 in WeatherCatV3.04B91 W/m2
23:49 47.3 °F 39.44 °F 30.01 in Calm     74% 0 in WeatherCatV3.04B91 W/m2
23:54 47.1 °F 39.25 °F 30.01 in Calm     74% 0 in WeatherCatV3.04B91 W/m2
23:59 46.8 °F 39.3 °F 30.02 in Calm     75% 0 in WeatherCatV3.04B91 W/m2
Bellevue, Nebraska, USA
Compliments of Weather Underground - 3.25 mb